sensor_id;sensor_type;location;lat;lon;timestamp;pressure;altitude;pressure_sealevel;temperature;humidity
36260;BME280;22296;50.824;5.644;2023-02-12T00:00:05;102897.84;;;13.69;58.83
36260;BME280;22296;50.824;5.644;2023-02-12T00:02:40;102899.47;;;13.65;58.96
36260;BME280;22296;50.824;5.644;2023-02-12T00:05:07;102900.00;;;13.62;58.84
36260;BME280;22296;50.824;5.644;2023-02-12T00:07:33;102889.69;;;13.57;59.19
36260;BME280;22296;50.824;5.644;2023-02-12T00:10:00;102892.72;;;13.56;59.25
36260;BME280;22296;50.824;5.644;2023-02-12T00:12:27;102883.84;;;13.54;59.09
36260;BME280;22296;50.824;5.644;2023-02-12T00:14:53;102887.69;;;13.53;59.34
36260;BME280;22296;50.824;5.644;2023-02-12T00:17:20;102889.06;;;13.50;59.25
36260;BME280;22296;50.824;5.644;2023-02-12T00:19:47;102891.00;;;13.50;59.32
36260;BME280;22296;50.824;5.644;2023-02-12T00:22:14;102892.06;;;13.49;59.31
36260;BME280;22296;50.824;5.644;2023-02-12T00:24:41;102892.06;;;13.49;59.19
36260;BME280;22296;50.824;5.644;2023-02-12T00:27:07;102888.75;;;13.47;59.20
36260;BME280;22296;50.824;5.644;2023-02-12T00:29:36;102886.75;;;13.42;59.44
36260;BME280;22296;50.824;5.644;2023-02-12T00:32:04;102887.00;;;13.41;59.49
36260;BME280;22296;50.824;5.644;2023-02-12T00:34:31;102890.06;;;13.39;59.49
36260;BME280;22296;50.824;5.644;2023-02-12T00:36:58;102892.81;;;13.39;59.46
36260;BME280;22296;50.824;5.644;2023-02-12T00:39:25;102888.66;;;13.37;59.44
36260;BME280;22296;50.824;5.644;2023-02-12T00:41:52;102885.03;;;13.36;59.52
36260;BME280;22296;50.824;5.644;2023-02-12T00:44:18;102890.00;;;13.34;59.77
36260;BME280;22296;50.824;5.644;2023-02-12T00:46:45;102887.47;;;13.33;59.55
36260;BME280;22296;50.824;5.644;2023-02-12T00:49:13;102896.06;;;13.31;59.65
36260;BME280;22296;50.824;5.644;2023-02-12T00:51:39;102885.50;;;13.28;59.82
36260;BME280;22296;50.824;5.644;2023-02-12T00:54:08;102887.41;;;13.28;59.73
36260;BME280;22296;50.824;5.644;2023-02-12T00:56:35;102885.75;;;13.27;59.88
36260;BME280;22296;50.824;5.644;2023-02-12T00:59:02;102886.31;;;13.29;59.78
36260;BME280;22296;50.824;5.644;2023-02-12T01:01:29;102890.72;;;13.25;59.42
36260;BME280;22296;50.824;5.644;2023-02-12T01:03:56;102887.66;;;13.26;59.68
36260;BME280;22296;50.824;5.644;2023-02-12T01:06:24;102890.94;;;13.23;59.70
36260;BME280;22296;50.824;5.644;2023-02-12T01:08:52;102895.69;;;13.23;59.67
36260;BME280;22296;50.824;5.644;2023-02-12T01:11:19;102895.69;;;13.23;59.78
36260;BME280;22296;50.824;5.644;2023-02-12T01:13:47;102896.75;;;13.22;59.79
36260;BME280;22296;50.824;5.644;2023-02-12T01:16:16;102887.03;;;13.19;59.90
36260;BME280;22296;50.824;5.644;2023-02-12T01:18:44;102894.25;;;13.20;59.66
36260;BME280;22296;50.824;5.644;2023-02-12T01:21:17;102892.03;;;13.17;59.69
36260;BME280;22296;50.824;5.644;2023-02-12T01:23:44;102882.25;;;13.14;59.79
36260;BME280;22296;50.824;5.644;2023-02-12T01:26:12;102887.22;;;13.12;59.91
36260;BME280;22296;50.824;5.644;2023-02-12T01:28:40;102894.97;;;13.10;59.82
36260;BME280;22296;50.824;5.644;2023-02-12T01:31:12;102884.97;;;13.09;59.88
36260;BME280;22296;50.824;5.644;2023-02-12T01:33:40;102885.53;;;13.11;59.79
36260;BME280;22296;50.824;5.644;2023-02-12T01:36:09;102884.97;;;13.09;59.80
36260;BME280;22296;50.824;5.644;2023-02-12T01:38:36;102882.69;;;13.06;59.97
36260;BME280;22296;50.824;5.644;2023-02-12T01:41:12;102881.84;;;13.06;60.06
36260;BME280;22296;50.824;5.644;2023-02-12T01:43:40;102871.03;;;13.04;60.04
36260;BME280;22296;50.824;5.644;2023-02-12T01:46:11;102879.34;;;13.04;60.12
36260;BME280;22296;50.824;5.644;2023-02-12T01:48:42;102872.63;;;13.00;60.24
36260;BME280;22296;50.824;5.644;2023-02-12T01:51:11;102868.78;;;13.01;60.15
36260;BME280;22296;50.824;5.644;2023-02-12T01:53:45;102867.94;;;13.01;60.05
36260;BME280;22296;50.824;5.644;2023-02-12T01:56:13;102859.38;;;13.02;60.10
36260;BME280;22296;50.824;5.644;2023-02-12T01:58:42;102860.75;;;13.00;60.08
36260;BME280;22296;50.824;5.644;2023-02-12T02:01:12;102862.06;;;12.97;60.15
36260;BME280;22296;50.824;5.644;2023-02-12T02:03:44;102857.66;;;12.96;60.09
36260;BME280;22296;50.824;5.644;2023-02-12T02:06:20;102862.34;;;12.96;60.10
36260;BME280;22296;50.824;5.644;2023-02-12T02:08:49;102856.22;;;12.94;60.32
36260;BME280;22296;50.824;5.644;2023-02-12T02:11:16;102860.09;;;12.93;60.14
36260;BME280;22296;50.824;5.644;2023-02-12T02:14:04;102859.25;;;12.92;60.38
36260;BME280;22296;50.824;5.644;2023-02-12T02:16:58;102866.47;;;12.93;60.40
36260;BME280;22296;50.824;5.644;2023-02-12T02:22:39;102862.53;;;12.89;60.32
36260;BME280;22296;50.824;5.644;2023-02-12T02:25:35;102863.63;;;12.88;60.45
36260;BME280;22296;50.824;5.644;2023-02-12T02:31:29;102866.09;;;12.85;60.31
36260;BME280;22296;50.824;5.644;2023-02-12T02:34:02;102869.69;;;12.85;60.54
36260;BME280;22296;50.824;5.644;2023-02-12T02:36:40;102869.69;;;12.85;60.49
36260;BME280;22296;50.824;5.644;2023-02-12T02:39:32;102867.16;;;12.84;60.55
36260;BME280;22296;50.824;5.644;2023-02-12T02:42:15;102863.56;;;12.83;60.68
36260;BME280;22296;50.824;5.644;2023-02-12T02:44:52;102862.97;;;12.81;60.64
36260;BME280;22296;50.824;5.644;2023-02-12T02:47:32;102862.13;;;12.81;60.55
36260;BME280;22296;50.824;5.644;2023-02-12T02:50:05;102862.97;;;12.81;60.61
36260;BME280;22296;50.824;5.644;2023-02-12T02:52:40;102853.78;;;12.76;60.63
36260;BME280;22296;50.824;5.644;2023-02-12T02:55:10;102845.19;;;12.77;60.52
36260;BME280;22296;50.824;5.644;2023-02-12T02:57:43;102848.56;;;12.79;60.45
36260;BME280;22296;50.824;5.644;2023-02-12T03:00:13;102863.50;;;12.78;60.51
36260;BME280;22296;50.824;5.644;2023-02-12T03:02:46;102854.63;;;12.76;60.64
36260;BME280;22296;50.824;5.644;2023-02-12T03:05:20;102851.84;;;12.76;60.64
36260;BME280;22296;50.824;5.644;2023-02-12T03:07:53;102854.63;;;12.76;60.66
36260;BME280;22296;50.824;5.644;2023-02-12T03:10:28;102861.50;;;12.74;60.52
36260;BME280;22296;50.824;5.644;2023-02-12T03:13:22;102859.53;;;12.74;60.60
36260;BME280;22296;50.824;5.644;2023-02-12T03:16:05;102857.06;;;12.73;60.48
36260;BME280;22296;50.824;5.644;2023-02-12T03:18:38;102858.97;;;12.72;60.59
36260;BME280;22296;50.824;5.644;2023-02-12T03:21:17;102852.59;;;12.72;60.63
36260;BME280;22296;50.824;5.644;2023-02-12T03:23:53;102850.09;;;12.70;60.76
36260;BME280;22296;50.824;5.644;2023-02-12T03:26:28;102843.47;;;12.71;60.54
36260;BME280;22296;50.824;5.644;2023-02-12T03:28:58;102848.41;;;12.69;60.59
36260;BME280;22296;50.824;5.644;2023-02-12T03:31:34;102853.94;;;12.69;60.57
36260;BME280;22296;50.824;5.644;2023-02-12T03:42:21;102865.03;;;12.69;60.49
36260;BME280;22296;50.824;5.644;2023-02-12T03:44:57;102867.22;;;12.67;60.36
36260;BME280;22296;50.824;5.644;2023-02-12T03:50:32;102855.56;;;12.65;60.49
36260;BME280;22296;50.824;5.644;2023-02-12T03:53:03;102853.88;;;12.64;60.70
36260;BME280;22296;50.824;5.644;2023-02-12T03:55:31;102860.00;;;12.66;60.47
36260;BME280;22296;50.824;5.644;2023-02-12T03:58:02;102851.97;;;12.65;60.72
36260;BME280;22296;50.824;5.644;2023-02-12T04:00:31;102866.03;;;12.63;60.73
36260;BME280;22296;50.824;5.644;2023-02-12T04:02:58;102871.56;;;12.63;60.82
36260;BME280;22296;50.824;5.644;2023-02-12T04:05:26;102863.53;;;12.62;60.74
36260;BME280;22296;50.824;5.644;2023-02-12T04:07:55;102865.22;;;12.63;60.89
36260;BME280;22296;50.824;5.644;2023-02-12T04:10:34;102871.56;;;12.63;60.71
36260;BME280;22296;50.824;5.644;2023-02-12T04:13:20;102869.91;;;12.62;60.85
36260;BME280;22296;50.824;5.644;2023-02-12T04:18:42;102863.22;;;12.58;60.93
36260;BME280;22296;50.824;5.644;2023-02-12T04:24:04;102865.75;;;12.60;60.62
36260;BME280;22296;50.824;5.644;2023-02-12T04:29:07;102870.94;;;12.56;60.76
36260;BME280;22296;50.824;5.644;2023-02-12T04:31:45;102870.66;;;12.57;60.79
36260;BME280;22296;50.824;5.644;2023-02-12T04:36:59;102879.47;;;12.54;60.76
36260;BME280;22296;50.824;5.644;2023-02-12T04:39:33;102874.78;;;12.55;60.84
36260;BME280;22296;50.824;5.644;2023-02-12T04:42:02;102875.63;;;12.55;60.85
36260;BME280;22296;50.824;5.644;2023-02-12T04:44:33;102879.47;;;12.54;60.87
36260;BME280;22296;50.824;5.644;2023-02-12T04:47:00;102876.97;;;12.53;60.86
36260;BME280;22296;50.824;5.644;2023-02-12T04:49:27;102874.78;;;12.55;60.77
36260;BME280;22296;50.824;5.644;2023-02-12T04:51:54;102876.97;;;12.53;60.85
36260;BME280;22296;50.824;5.644;2023-02-12T04:54:21;102883.88;;;12.50;60.96
36260;BME280;22296;50.824;5.644;2023-02-12T04:56:49;102880.84;;;12.52;60.97
36260;BME280;22296;50.824;5.644;2023-02-12T04:59:16;102884.09;;;12.49;61.05
36260;BME280;22296;50.824;5.644;2023-02-12T05:01:43;102883.59;;;12.52;60.88
36260;BME280;22296;50.824;5.644;2023-02-12T05:04:13;102887.72;;;12.49;60.82
36260;BME280;22296;50.824;5.644;2023-02-12T05:06:41;102884.34;;;12.64;60.44
36260;BME280;22296;50.824;5.644;2023-02-12T05:09:12;102885.13;;;12.60;60.96
36260;BME280;22296;50.824;5.644;2023-02-12T05:11:39;102884.22;;;12.54;61.13
36260;BME280;22296;50.824;5.644;2023-02-12T05:14:06;102886.03;;;12.48;61.38
36260;BME280;22296;50.824;5.644;2023-02-12T05:16:33;102879.69;;;12.48;61.39
36260;BME280;22296;50.824;5.644;2023-02-12T05:19:00;102880.75;;;12.47;61.30
36260;BME280;22296;50.824;5.644;2023-02-12T05:21:27;102872.47;;;12.47;61.20
36260;BME280;22296;50.824;5.644;2023-02-12T05:23:53;102876.31;;;12.46;61.29
36260;BME280;22296;50.824;5.644;2023-02-12T05:26:21;102875.72;;;12.44;61.17
36260;BME280;22296;50.824;5.644;2023-02-12T05:28:48;102890.16;;;12.46;61.23
36260;BME280;22296;50.824;5.644;2023-02-12T05:31:17;102883.69;;;12.40;61.22
36260;BME280;22296;50.824;5.644;2023-02-12T05:33:48;102882.84;;;12.40;61.23
36260;BME280;22296;50.824;5.644;2023-02-12T05:36:18;102882.84;;;12.40;61.21
36260;BME280;22296;50.824;5.644;2023-02-12T05:38:45;102887.56;;;12.39;61.14
36260;BME280;22296;50.824;5.644;2023-02-12T05:41:18;102890.00;;;12.36;61.18
36260;BME280;22296;50.824;5.644;2023-02-12T05:43:45;102890.25;;;12.34;61.31
36260;BME280;22296;50.824;5.644;2023-02-12T05:46:16;102893.28;;;12.33;61.29
36260;BME280;22296;50.824;5.644;2023-02-12T05:48:43;102891.59;;;12.32;61.30
36260;BME280;22296;50.824;5.644;2023-02-12T05:51:16;102889.94;;;12.31;61.29
36260;BME280;22296;50.824;5.644;2023-02-12T05:53:43;102891.59;;;12.32;61.14
36260;BME280;22296;50.824;5.644;2023-02-12T05:56:20;102893.78;;;12.30;61.20
36260;BME280;22296;50.824;5.644;2023-02-12T05:58:51;102892.94;;;12.29;61.15
36260;BME280;22296;50.824;5.644;2023-02-12T06:01:29;102897.63;;;12.29;61.20
36260;BME280;22296;50.824;5.644;2023-02-12T06:04:01;102895.13;;;12.27;61.12
36260;BME280;22296;50.824;5.644;2023-02-12T06:06:29;102902.59;;;12.27;61.36
36260;BME280;22296;50.824;5.644;2023-02-12T06:08:57;102900.91;;;12.26;61.31
36260;BME280;22296;50.824;5.644;2023-02-12T06:11:24;102906.69;;;12.24;61.40
36260;BME280;22296;50.824;5.644;2023-02-12T06:13:50;102898.13;;;12.26;61.47
36260;BME280;22296;50.824;5.644;2023-02-12T06:16:22;102889.25;;;12.24;61.25
36260;BME280;22296;50.824;5.644;2023-02-12T06:18:50;102894.78;;;12.24;61.22
36260;BME280;22296;50.824;5.644;2023-02-12T06:21:18;102889.03;;;12.25;61.28
36260;BME280;22296;50.824;5.644;2023-02-12T06:23:46;102906.34;;;12.21;61.28
36260;BME280;22296;50.824;5.644;2023-02-12T06:26:14;102900.25;;;12.19;61.23
36260;BME280;22296;50.824;5.644;2023-02-12T06:28:41;102906.34;;;12.21;61.26
36260;BME280;22296;50.824;5.644;2023-02-12T06:31:20;102911.03;;;12.20;61.07
36260;BME280;22296;50.824;5.644;2023-02-12T06:33:49;102905.50;;;12.20;61.13
36260;BME280;22296;50.824;5.644;2023-02-12T06:36:16;102903.25;;;12.17;61.25
36260;BME280;22296;50.824;5.644;2023-02-12T06:38:43;102905.19;;;12.17;61.31
36260;BME280;22296;50.824;5.644;2023-02-12T06:41:10;102910.72;;;12.17;61.54
36260;BME280;22296;50.824;5.644;2023-02-12T06:43:37;102913.50;;;12.17;61.23
36260;BME280;22296;50.824;5.644;2023-02-12T06:46:05;102905.44;;;12.15;61.39
36260;BME280;22296;50.824;5.644;2023-02-12T06:48:32;102912.88;;;12.15;61.36
36260;BME280;22296;50.824;5.644;2023-02-12T06:51:07;102907.63;;;12.13;61.30
36260;BME280;22296;50.824;5.644;2023-02-12T06:53:34;102912.88;;;12.15;61.29
36260;BME280;22296;50.824;5.644;2023-02-12T06:56:05;102916.75;;;12.14;61.07
36260;BME280;22296;50.824;5.644;2023-02-12T06:58:42;102914.22;;;12.12;61.14
36260;BME280;22296;50.824;5.644;2023-02-12T07:01:20;102917.84;;;12.13;61.15
36260;BME280;22296;50.824;5.644;2023-02-12T07:03:50;102913.38;;;12.12;61.26
36260;BME280;22296;50.824;5.644;2023-02-12T07:06:18;102927.47;;;12.10;61.29
36260;BME280;22296;50.824;5.644;2023-02-12T07:08:46;102924.44;;;12.12;61.20
36260;BME280;22296;50.824;5.644;2023-02-12T07:11:13;102929.69;;;12.08;61.13
36260;BME280;22296;50.824;5.644;2023-02-12T07:13:40;102934.38;;;12.08;61.35
36260;BME280;22296;50.824;5.644;2023-02-12T07:16:12;102932.44;;;12.08;61.27
36260;BME280;22296;50.824;5.644;2023-02-12T07:18:41;102937.34;;;12.06;61.44
36260;BME280;22296;50.824;5.644;2023-02-12T07:21:10;102943.50;;;12.08;61.18
36260;BME280;22296;50.824;5.644;2023-02-12T07:23:37;102936.50;;;12.06;61.35
36260;BME280;22296;50.824;5.644;2023-02-12T07:26:10;102935.44;;;12.07;61.38
36260;BME280;22296;50.824;5.644;2023-02-12T07:28:37;102933.88;;;12.11;60.98
36260;BME280;22296;50.824;5.644;2023-02-12T07:31:15;102941.16;;;12.17;60.63
36260;BME280;22296;50.824;5.644;2023-02-12T07:33:43;102940.41;;;12.21;60.53
36260;BME280;22296;50.824;5.644;2023-02-12T07:36:13;102945.78;;;12.28;60.54
36260;BME280;22296;50.824;5.644;2023-02-12T07:38:40;102953.72;;;12.41;60.14
36260;BME280;22296;50.824;5.644;2023-02-12T07:41:08;102947.75;;;12.66;59.57
36260;BME280;22296;50.824;5.644;2023-02-12T07:43:37;102938.00;;;12.80;59.05
36260;BME280;22296;50.824;5.644;2023-02-12T07:48:34;102945.50;;;13.01;58.65
36260;BME280;22296;50.824;5.644;2023-02-12T07:51:03;102949.09;;;13.18;58.15
36260;BME280;22296;50.824;5.644;2023-02-12T07:53:31;102955.59;;;13.29;57.59
36260;BME280;22296;50.824;5.644;2023-02-12T07:56:11;102943.22;;;13.36;57.87
36260;BME280;22296;50.824;5.644;2023-02-12T07:58:39;102938.63;;;13.47;57.12
36260;BME280;22296;50.824;5.644;2023-02-12T08:01:11;102942.63;;;13.56;57.08
36260;BME280;22296;50.824;5.644;2023-02-12T08:03:39;102951.13;;;13.71;56.85
36260;BME280;22296;50.824;5.644;2023-02-12T08:06:11;102952.34;;;13.80;56.48
36260;BME280;22296;50.824;5.644;2023-02-12T08:08:38;102949.66;;;13.90;56.30
36260;BME280;22296;50.824;5.644;2023-02-12T08:11:06;102951.94;;;13.98;56.22
36260;BME280;22296;50.824;5.644;2023-02-12T08:13:35;102949.22;;;14.03;56.13
36260;BME280;22296;50.824;5.644;2023-02-12T08:16:04;102949.84;;;14.10;55.89
36260;BME280;22296;50.824;5.644;2023-02-12T08:18:32;102953.84;;;14.19;56.03
36260;BME280;22296;50.824;5.644;2023-02-12T08:23:30;102961.13;;;14.31;55.73
36260;BME280;22296;50.824;5.644;2023-02-12T08:26:06;102957.28;;;14.32;55.73
36260;BME280;22296;50.824;5.644;2023-02-12T08:28:34;102956.69;;;14.29;55.98
36260;BME280;22296;50.824;5.644;2023-02-12T08:31:02;102957.88;;;14.34;55.82
36260;BME280;22296;50.824;5.644;2023-02-12T08:33:30;102958.22;;;14.42;55.81
36260;BME280;22296;50.824;5.644;2023-02-12T08:36:10;102957.94;;;14.44;55.72
36260;BME280;22296;50.824;5.644;2023-02-12T08:38:38;102966.25;;;14.44;55.73
36260;BME280;22296;50.824;5.644;2023-02-12T08:41:08;102968.25;;;14.48;55.55
36260;BME280;22296;50.824;5.644;2023-02-12T08:43:36;102959.13;;;14.53;55.46
36260;BME280;22296;50.824;5.644;2023-02-12T08:46:05;102974.19;;;14.62;55.26
36260;BME280;22296;50.824;5.644;2023-02-12T08:48:32;102968.31;;;14.58;55.45
36260;BME280;22296;50.824;5.644;2023-02-12T08:51:17;102964.47;;;14.59;55.25
36260;BME280;22296;50.824;5.644;2023-02-12T08:53:46;102968.09;;;14.65;55.27
36260;BME280;22296;50.824;5.644;2023-02-12T08:56:15;102967.25;;;14.64;55.38
36260;BME280;22296;50.824;5.644;2023-02-12T08:58:42;102970.03;;;14.64;55.36
36260;BME280;22296;50.824;5.644;2023-02-12T09:01:15;102969.25;;;14.69;55.10
36260;BME280;22296;50.824;5.644;2023-02-12T09:03:43;102973.44;;;14.71;54.92
36260;BME280;22296;50.824;5.644;2023-02-12T09:06:11;102967.06;;;14.76;54.96
36260;BME280;22296;50.824;5.644;2023-02-12T09:08:38;102970.97;;;14.75;55.06
36260;BME280;22296;50.824;5.644;2023-02-12T09:11:07;102972.59;;;14.71;55.16
36260;BME280;22296;50.824;5.644;2023-02-12T09:13:35;102964.28;;;14.76;55.17
36260;BME280;22296;50.824;5.644;2023-02-12T09:16:03;102958.75;;;14.81;54.92
36260;BME280;22296;50.824;5.644;2023-02-12T09:18:30;102958.22;;;14.79;55.19
36260;BME280;22296;50.824;5.644;2023-02-12T09:21:02;102967.09;;;14.81;55.11
36260;BME280;22296;50.824;5.644;2023-02-12T09:23:29;102960.47;;;14.87;55.00
36260;BME280;22296;50.824;5.644;2023-02-12T09:25:57;102958.81;;;14.86;55.05
36260;BME280;22296;50.824;5.644;2023-02-12T09:28:24;102969.66;;;14.88;54.95
36260;BME280;22296;50.824;5.644;2023-02-12T09:30:51;102967.41;;;14.84;55.30
36260;BME280;22296;50.824;5.644;2023-02-12T09:33:18;102963.00;;;14.89;55.09
36260;BME280;22296;50.824;5.644;2023-02-12T09:35:45;102967.19;;;14.91;55.08
36260;BME280;22296;50.824;5.644;2023-02-12T09:38:11;102962.47;;;14.92;55.02
36260;BME280;22296;50.824;5.644;2023-02-12T09:43:35;102970.06;;;15.06;54.80
36260;BME280;22296;50.824;5.644;2023-02-12T09:51:21;102975.63;;;15.06;54.86
36260;BME280;22296;50.824;5.644;2023-02-12T09:54:02;102980.59;;;15.04;54.97
36260;BME280;22296;50.824;5.644;2023-02-12T09:56:33;102976.44;;;15.07;54.91
36260;BME280;22296;50.824;5.644;2023-02-12T10:01:48;102986.78;;;15.16;54.73
36260;BME280;22296;50.824;5.644;2023-02-12T10:04:15;102987.94;;;15.20;54.66
36260;BME280;22296;50.824;5.644;2023-02-12T10:06:50;102985.16;;;15.20;54.67
36260;BME280;22296;50.824;5.644;2023-02-12T10:12:14;102989.88;;;15.25;54.54
36260;BME280;22296;50.824;5.644;2023-02-12T10:17:35;102985.47;;;15.29;54.63
36260;BME280;22296;50.824;5.644;2023-02-12T10:26:05;102989.69;;;15.41;54.50
36260;BME280;22296;50.824;5.644;2023-02-12T10:28:40;102988.03;;;15.40;54.40
36260;BME280;22296;50.824;5.644;2023-02-12T10:34:40;102985.81;;;15.43;54.38
36260;BME280;22296;50.824;5.644;2023-02-12T10:42:38;102980.88;;;15.50;54.34
36260;BME280;22296;50.824;5.644;2023-02-12T10:45:12;102990.88;;;15.56;54.25
36260;BME280;22296;50.824;5.644;2023-02-12T10:47:39;102987.00;;;15.57;54.29
36260;BME280;22296;50.824;5.644;2023-02-12T10:50:20;102993.09;;;15.54;54.46
36260;BME280;22296;50.824;5.644;2023-02-12T10:52:53;102978.09;;;15.55;54.46
36260;BME280;22296;50.824;5.644;2023-02-12T10:55:33;102987.84;;;15.62;54.40
36260;BME280;22296;50.824;5.644;2023-02-12T10:58:02;102987.59;;;15.64;54.29
36260;BME280;22296;50.824;5.644;2023-02-12T11:00:36;102985.38;;;15.66;54.28
36260;BME280;22296;50.824;5.644;2023-02-12T11:05:42;102984.28;;;15.72;54.27
36260;BME280;22296;50.824;5.644;2023-02-12T11:08:28;102971.47;;;15.66;54.60
36260;BME280;22296;50.824;5.644;2023-02-12T11:11:02;102968.13;;;15.69;54.52
36260;BME280;22296;50.824;5.644;2023-02-12T11:13:31;102969.78;;;15.70;54.58
36260;BME280;22296;50.824;5.644;2023-02-12T11:15:58;102969.22;;;15.68;54.60
36260;BME280;22296;50.824;5.644;2023-02-12T11:18:29;102978.72;;;15.72;54.64
36260;BME280;22296;50.824;5.644;2023-02-12T11:21:21;102965.66;;;15.77;54.48
36260;BME280;22296;50.824;5.644;2023-02-12T11:23:48;102960.09;;;15.77;54.50
36260;BME280;22296;50.824;5.644;2023-02-12T11:28:58;102958.69;;;15.80;54.46
36260;BME280;22296;50.824;5.644;2023-02-12T11:31:28;102952.03;;;15.86;54.39
36260;BME280;22296;50.824;5.644;2023-02-12T11:34:08;102944.78;;;15.85;54.32
36260;BME280;22296;50.824;5.644;2023-02-12T11:36:40;102946.19;;;15.82;54.31
36260;BME280;22296;50.824;5.644;2023-02-12T11:39:30;102940.91;;;15.81;54.50
36260;BME280;22296;50.824;5.644;2023-02-12T11:42:05;102940.91;;;15.86;54.39
36260;BME280;22296;50.824;5.644;2023-02-12T11:44:37;102937.28;;;15.90;54.27
36260;BME280;22296;50.824;5.644;2023-02-12T11:47:09;102932.00;;;15.84;54.20
36260;BME280;22296;50.824;5.644;2023-02-12T11:49:43;102931.44;;;15.87;54.10
36260;BME280;22296;50.824;5.644;2023-02-12T11:52:22;102923.66;;;15.94;53.75
36260;BME280;22296;50.824;5.644;2023-02-12T11:54:53;102923.66;;;15.89;53.79
36260;BME280;22296;50.824;5.644;2023-02-12T11:57:44;102919.75;;;15.80;53.97
36260;BME280;22296;50.824;5.644;2023-02-12T12:00:27;102918.66;;;15.86;54.00
36260;BME280;22296;50.824;5.644;2023-02-12T12:03:03;102921.44;;;15.96;53.85
36260;BME280;22296;50.824;5.644;2023-02-12T12:05:41;102919.19;;;15.93;53.90
36260;BME280;22296;50.824;5.644;2023-02-12T12:08:15;102914.75;;;15.97;53.67
36260;BME280;22296;50.824;5.644;2023-02-12T12:10:54;102911.13;;;15.91;54.00
36260;BME280;22296;50.824;5.644;2023-02-12T12:13:37;102908.06;;;15.93;54.02
36260;BME280;22296;50.824;5.644;2023-02-12T12:16:13;102914.22;;;15.95;53.84
36260;BME280;22296;50.824;5.644;2023-02-12T12:19:27;102905.88;;;15.95;53.86
36260;BME280;22296;50.824;5.644;2023-02-12T12:30:50;102895.53;;;15.90;54.20
36260;BME280;22296;50.824;5.644;2023-02-12T12:38:40;102896.66;;;16.00;53.94
36260;BME280;22296;50.824;5.644;2023-02-12T12:46:33;102881.91;;;15.94;54.17
36260;BME280;22296;50.824;5.644;2023-02-12T13:14:44;102858.53;;;16.00;53.99
36260;BME280;22296;50.824;5.644;2023-02-12T13:17:22;102851.31;;;16.04;54.01
36260;BME280;22296;50.824;5.644;2023-02-12T13:19:54;102841.28;;;16.03;53.96
36260;BME280;22296;50.824;5.644;2023-02-12T13:22:54;102846.84;;;16.03;53.99
36260;BME280;22296;50.824;5.644;2023-02-12T13:27:58;102841.28;;;16.03;54.03
36260;BME280;22296;50.824;5.644;2023-02-12T13:30:30;102833.22;;;16.07;53.70
36260;BME280;22296;50.824;5.644;2023-02-12T13:33:17;102827.06;;;16.05;54.07
36260;BME280;22296;50.824;5.644;2023-02-12T13:35:50;102830.16;;;16.03;53.92
36260;BME280;22296;50.824;5.644;2023-02-12T13:38:23;102831.84;;;16.04;53.91
36260;BME280;22296;50.824;5.644;2023-02-12T13:40:58;102827.91;;;16.05;53.79
36260;BME280;22296;50.824;5.644;2023-02-12T13:44:00;102822.91;;;16.02;53.94
36260;BME280;22296;50.824;5.644;2023-02-12T13:51:47;102812.06;;;16.06;53.49
36260;BME280;22296;50.824;5.644;2023-02-12T13:56:55;102811.22;;;16.05;53.57
36260;BME280;22296;50.824;5.644;2023-02-12T14:01:57;102808.97;;;16.07;53.52
36260;BME280;22296;50.824;5.644;2023-02-12T14:07:18;102814.53;;;16.07;53.49
36260;BME280;22296;50.824;5.644;2023-02-12T14:12:26;102798.97;;;16.11;53.69
36260;BME280;22296;50.824;5.644;2023-02-12T14:15:05;102806.47;;;16.11;53.56
36260;BME280;22296;50.824;5.644;2023-02-12T14:20:24;102809.56;;;16.09;53.72
36260;BME280;22296;50.824;5.644;2023-02-12T14:25:37;102806.22;;;16.12;53.55
36260;BME280;22296;50.824;5.644;2023-02-12T14:28:17;102812.03;;;16.11;53.76
36260;BME280;22296;50.824;5.644;2023-02-12T14:39:27;102804.53;;;16.11;53.80
36260;BME280;22296;50.824;5.644;2023-02-12T14:44:47;102806.22;;;16.12;53.76
36260;BME280;22296;50.824;5.644;2023-02-12T14:50:14;102807.84;;;16.13;53.69
36260;BME280;22296;50.824;5.644;2023-02-12T14:52:50;102806.75;;;16.14;53.71
36260;BME280;22296;50.824;5.644;2023-02-12T14:55:19;102798.97;;;16.11;53.81
36260;BME280;22296;50.824;5.644;2023-02-12T14:57:47;102801.72;;;16.16;53.69
36260;BME280;22296;50.824;5.644;2023-02-12T15:00:35;102805.66;;;16.15;53.67
36260;BME280;22296;50.824;5.644;2023-02-12T15:05:50;102805.91;;;16.19;53.56
36260;BME280;22296;50.824;5.644;2023-02-12T15:08:48;102799.53;;;16.18;53.60
36260;BME280;22296;50.824;5.644;2023-02-12T15:14:03;102796.16;;;16.16;53.54
36260;BME280;22296;50.824;5.644;2023-02-12T15:16:34;102796.16;;;16.21;53.45
36260;BME280;22296;50.824;5.644;2023-02-12T15:22:00;102786.44;;;16.14;53.58
36260;BME280;22296;50.824;5.644;2023-02-12T15:24:27;102779.75;;;16.15;53.47
36260;BME280;22296;50.824;5.644;2023-02-12T15:26:56;102780.00;;;16.13;53.46
36260;BME280;22296;50.824;5.644;2023-02-12T15:29:27;102795.06;;;16.02;53.98
36260;BME280;22296;50.824;5.644;2023-02-12T15:31:57;102779.78;;;16.10;53.65
36260;BME280;22296;50.824;5.644;2023-02-12T15:34:30;102783.09;;;16.12;53.63
36260;BME280;22296;50.824;5.644;2023-02-12T15:37:02;102795.91;;;16.13;53.70
36260;BME280;22296;50.824;5.644;2023-02-12T15:39:42;102788.38;;;16.23;54.87
36260;BME280;22296;50.824;5.644;2023-02-12T15:42:26;102791.09;;;16.33;54.36
36260;BME280;22296;50.824;5.644;2023-02-12T15:47:43;102789.69;;;16.56;53.95
36260;BME280;22296;50.824;5.644;2023-02-12T15:50:13;102786.00;;;16.71;53.66
36260;BME280;22296;50.824;5.644;2023-02-12T15:52:43;102785.72;;;16.77;53.10
36260;BME280;22296;50.824;5.644;2023-02-12T15:55:32;102775.19;;;16.64;53.63
36260;BME280;22296;50.824;5.644;2023-02-12T15:58:23;102777.16;;;16.53;53.83